Darstellungsparameter: Aktuell verwendete Einstellungen:
Skalierung der Graphiken ... ?
xyx+y,   Skalierungsfaktor:      Skalierung: Modus: x, Faktor: 1
Darstellungszeitraum ... ?
Vom - - bis: - -   Zeitraum: 19.04.2009 - 21.04.2009
Min/Max/Avg-Anzeige ... ?
Zeige MMA aktuell
Zeige MMA Monat
Zeige MMA alles
Zeige --A aktuell
Zeige --A Monat
Zeige --A alles
Keine MMA-Anzeige
MMA:
Average (ber die Originaldaten)
MMA-Basis: 19.04.2009 - 21.04.2009
Quicknavigation für Darstellung... ?
Tage:      1T, 2T, 3T, 5T -1T -2T -3T -5T +1T +2T +3T +5T
Wochen: 1W, 2W, 3W -1W -2W -3W +1W +2W +3W
Monate: 1M, 3M, 6M -1M -3M -6M +1M +3M +6M
Jahre:    1J, 3J, 5J, 10J -1J -3J -5J -10J +1J +3J +5J +10J
Nutze für die Darstellung ... ?
Originaldaten oder Mittelwerte auf ...
Stundenbasis Tagesbasis Wochenbasis
Monatsbasis Jahresbasis      Datenbasis: Original-Daten
Darstellen als:
Statistik (Auto) Statistik J:M      Darstellung:
Zur Graphik,    zurück zur Übersicht aller Sensoren.
 
Tabellarische Datenbersicht: ?
 
Sensor: Nr:Datum:Temp:Abs-Feuchte:Windchill:Wind:
Aussen-T/F 1 19-04-2009 00:03:50 9.2 C 8.13 g/m*3 9.2 C 0 km/h
2 19-04-2009 00:15:50 9.4 C 8.23 g/m*3 9.4 C 0 km/h
3 19-04-2009 00:27:50 9.4 C 8.23 g/m*3 9.4 C 0 km/h
4 19-04-2009 00:39:50 9.5 C 8.19 g/m*3 9.5 C 0 km/h
5 19-04-2009 00:51:50 9.5 C 8.19 g/m*3 9.5 C 0 km/h
6 19-04-2009 01:03:50 9.6 C 8.15 g/m*3 9.6 C 0 km/h
7 19-04-2009 01:15:50 9.6 C 8.15 g/m*3 9.6 C 0 km/h
8 19-04-2009 01:27:50 9.6 C 8.15 g/m*3 9.6 C 0 km/h
9 19-04-2009 01:39:50 9.6 C 8.15 g/m*3 9.6 C 0 km/h
10 19-04-2009 01:51:50 9.6 C 8.15 g/m*3 9.6 C 0 km/h
11 19-04-2009 02:03:50 9.6 C 8.15 g/m*3 9.6 C 0 km/h
12 19-04-2009 02:15:50 9.7 C 8.2 g/m*3 9.7 C 0 km/h
13 19-04-2009 02:27:50 9.8 C 8.26 g/m*3 9.8 C 0 km/h
14 19-04-2009 02:39:50 9.8 C 8.26 g/m*3 9.8 C 0 km/h
15 19-04-2009 02:51:50 9.9 C 8.22 g/m*3 9.9 C 0 km/h
16 19-04-2009 03:03:50 9.9 C 8.22 g/m*3 9.9 C 0 km/h
17 19-04-2009 03:15:50 9.8 C 8.16 g/m*3 9.8 C 0 km/h
18 19-04-2009 03:27:51 9.8 C 8.16 g/m*3 9.8 C 0 km/h
19 19-04-2009 03:39:51 9.8 C 8.16 g/m*3 9.8 C 0 km/h
20 19-04-2009 03:51:51 9.8 C 8.16 g/m*3 9.8 C 0 km/h
21 19-04-2009 04:03:51 9.7 C 8.11 g/m*3 9.7 C 0 km/h
22 19-04-2009 04:15:51 9.4 C 7.96 g/m*3 9.4 C 0 km/h
23 19-04-2009 04:27:51 9.4 C 8.05 g/m*3 9.4 C 0 km/h
24 19-04-2009 04:39:51 9.3 C 8 g/m*3 9.3 C 0 km/h
25 19-04-2009 04:51:51 9.3 C 8 g/m*3 9.3 C 0 km/h
Sensor: Nr:Datum:Temp:Abs-Feuchte:Windchill:Wind:
Aussen-T/F 26 19-04-2009 05:03:51 9.3 C 8.09 g/m*3 9.3 C 0 km/h
27 19-04-2009 05:15:51 9.3 C 8.09 g/m*3 9.3 C 0 km/h
28 19-04-2009 05:27:51 9.4 C 8.05 g/m*3 9.4 C 0 km/h
29 19-04-2009 05:39:51 9.4 C 8.05 g/m*3 9.4 C 0 km/h
30 19-04-2009 05:51:51 9.3 C 8 g/m*3 9.3 C 0 km/h
31 19-04-2009 06:03:51 9.3 C 7.91 g/m*3 9.3 C 0 km/h
32 19-04-2009 06:15:51 9.3 C 7.91 g/m*3 9.3 C 0 km/h
33 19-04-2009 06:27:51 9.3 C 7.91 g/m*3 9.3 C 0 km/h
34 19-04-2009 06:39:51 9.3 C 7.91 g/m*3 9.3 C 0 km/h
35 19-04-2009 06:51:51 9.3 C 7.91 g/m*3 9.3 C 0 km/h
36 19-04-2009 07:03:51 9.3 C 7.91 g/m*3 9.3 C 0 km/h
37 19-04-2009 07:15:52 9.5 C 8.01 g/m*3 9.5 C 0 km/h
38 19-04-2009 07:27:52 9.6 C 8.06 g/m*3 9.6 C 0 km/h
39 19-04-2009 07:39:52 9.8 C 8.16 g/m*3 9.8 C 0 km/h
40 19-04-2009 07:51:52 10 C 8.08 g/m*3 10 C 0 km/h
41 19-04-2009 08:03:52 10.1 C 8.13 g/m*3 10.1 C 0 km/h
42 19-04-2009 08:15:52 9.8 C 7.98 g/m*3 9.8 C 0 km/h
43 19-04-2009 08:27:52 9.7 C 7.93 g/m*3 9.7 C 0 km/h
44 19-04-2009 08:39:48 9.8 C 7.98 g/m*3 9.8 C 0 km/h
45 19-04-2009 08:51:47 10.5 C 8.15 g/m*3 10.5 C 0 km/h
46 19-04-2009 09:03:48 11 C 8.01 g/m*3 11 C 0 km/h
47 19-04-2009 09:15:47 11.1 C 7.66 g/m*3 11.1 C 0 km/h
48 19-04-2009 09:27:47 11.2 C 7.5 g/m*3 11.2 C 0 km/h
49 19-04-2009 09:39:47 11.6 C 7.59 g/m*3 11.6 C 0 km/h
50 19-04-2009 09:51:47 11.9 C 7.31 g/m*3 11.9 C 0 km/h
Sensor: Nr:Datum:Temp:Abs-Feuchte:Windchill:Wind:
Aussen-T/F 51 19-04-2009 10:03:47 12.4 C 7.21 g/m*3 12.4 C 0 km/h
52 19-04-2009 10:15:47 12.9 C 7.21 g/m*3 12.9 C 0 km/h
53 19-04-2009 10:27:47 12.7 C 7.24 g/m*3 12.7 C 0 km/h
54 19-04-2009 10:39:46 13 C 6.92 g/m*3 13 C 0 km/h
55 19-04-2009 10:51:47 13.6 C 7.18 g/m*3 13.6 C 0 km/h
56 19-04-2009 11:03:46 14.3 C 6.88 g/m*3 14.3 C 0 km/h
57 19-04-2009 11:15:46 14.6 C 6.51 g/m*3 14.6 C 0 km/h
58 19-04-2009 11:27:46 15.1 C 6.71 g/m*3 15.1 C 0 km/h
59 19-04-2009 11:39:46 15.1 C 6.32 g/m*3 15.1 C 0 km/h
60 19-04-2009 11:51:46 15.5 C 6.48 g/m*3 15.5 C 0 km/h
61 19-04-2009 12:03:45 16 C 6.54 g/m*3 16 C 0 km/h
62 19-04-2009 12:15:46 16 C 6.27 g/m*3 16 C 0 km/h
63 19-04-2009 12:27:46 17.1 C 6.55 g/m*3 17.1 C 0 km/h
64 19-04-2009 12:39:46 17 C 6.08 g/m*3 17 C 0 km/h
65 19-04-2009 12:51:45 16 C 6.54 g/m*3 16 C 0 km/h
66 19-04-2009 13:03:46 15.9 C 6.23 g/m*3 15.9 C 0 km/h
67 19-04-2009 13:15:45 16 C 6.13 g/m*3 16 C 0 km/h
68 19-04-2009 13:27:45 16.9 C 6.76 g/m*3 16.9 C 0 km/h
69 19-04-2009 13:39:45 16.9 C 6.76 g/m*3 16.9 C 0 km/h
70 19-04-2009 13:51:45 17.1 C 6.26 g/m*3 17.1 C 0 km/h
71 19-04-2009 14:03:45 17.5 C 6.41 g/m*3 17.5 C 0 km/h
72 19-04-2009 14:15:44 18.7 C 6.24 g/m*3 18.7 C 0 km/h
73 19-04-2009 14:27:44 19.1 C 5.74 g/m*3 19.1 C 0 km/h
74 19-04-2009 14:39:44 19.9 C 6.01 g/m*3 19.9 C 0 km/h
75 19-04-2009 14:51:44 21 C 5.31 g/m*3 21 C 0 km/h
Sensor: Nr:Datum:Temp:Abs-Feuchte:Windchill:Wind:
Aussen-T/F 76 19-04-2009 15:03:44 20.9 C 5.46 g/m*3 20.9 C 0 km/h
77 19-04-2009 15:15:43 21.1 C 5.53 g/m*3 21.1 C 0 km/h
78 19-04-2009 15:27:43 22.1 C 5.08 g/m*3 22.1 C 0 km/h
79 19-04-2009 15:39:44 21.2 C 5.74 g/m*3 21.2 C 0 km/h
80 19-04-2009 15:51:43 22.3 C 5.13 g/m*3 22.3 C 0 km/h
81 19-04-2009 16:03:43 23.3 C 4.81 g/m*3 23.3 C 0 km/h
82 19-04-2009 16:15:44 23.9 C 4.76 g/m*3 23.9 C 0 km/h
83 19-04-2009 16:27:44 25.2 C 4.89 g/m*3 25.2 C 0 km/h
84 19-04-2009 16:39:02 24.6 C 4.73 g/m*3 24.6 C 0 km/h
85 19-04-2009 16:51:01 25.4 C 4.71 g/m*3 25.4 C 0 km/h
86 19-04-2009 17:03:01 25.3 C 4.68 g/m*3 25.3 C 0 km/h
87 19-04-2009 17:15:01 25.4 C 4.71 g/m*3 25.4 C 0 km/h
88 19-04-2009 17:27:01 25.7 C 4.79 g/m*3 25.7 C 0 km/h
89 19-04-2009 17:39:01 25.6 C 4.76 g/m*3 25.6 C 0 km/h
90 19-04-2009 17:51:01 25.7 C 4.79 g/m*3 25.7 C 0 km/h
91 19-04-2009 18:03:01 25.6 C 4.76 g/m*3 25.6 C 0 km/h
92 19-04-2009 18:15:00 25.2 C 4.66 g/m*3 25.2 C 0 km/h
93 19-04-2009 18:27:00 25.1 C 4.63 g/m*3 25.1 C 0 km/h
94 19-04-2009 18:39:00 25.2 C 4.66 g/m*3 25.2 C 0 km/h
95 19-04-2009 18:51:00 24.9 C 4.58 g/m*3 24.9 C 0 km/h
96 19-04-2009 19:03:00 24.5 C 4.48 g/m*3 24.5 C 0 km/h
97 19-04-2009 19:15:59 24.2 C 4.4 g/m*3 24.2 C 0 km/h
98 19-04-2009 19:27:59 23.7 C 4.71 g/m*3 23.7 C 0 km/h
99 19-04-2009 19:39:00 23 C 4.93 g/m*3 23 C 0 km/h
100 19-04-2009 19:51:59 22.2 C 5.3 g/m*3 22.2 C 0 km/h
Sensor: Nr:Datum:Temp:Abs-Feuchte:Windchill:Wind:
Aussen-T/F 101 19-04-2009 20:03:59 21 C 5.68 g/m*3 21 C 0 km/h
102 19-04-2009 20:14:59 19.3 C 5.64 g/m*3 19.3 C 0 km/h
103 19-04-2009 20:26:59 18.3 C 5.63 g/m*3 18.3 C 0 km/h
104 19-04-2009 20:39:59 17.2 C 5.86 g/m*3 17.2 C 0 km/h
105 19-04-2009 20:51:59 16.6 C 5.79 g/m*3 16.6 C 0 km/h
106 19-04-2009 21:03:59 16.2 C 6.07 g/m*3 16.2 C 0 km/h
107 19-04-2009 21:15:58 15.8 C 6.33 g/m*3 15.8 C 0 km/h
108 19-04-2009 21:27:58 15.4 C 6.44 g/m*3 15.4 C 0 km/h
109 19-04-2009 21:39:59 15.2 C 6.62 g/m*3 15.2 C 0 km/h
110 19-04-2009 21:51:58 14.9 C 6.63 g/m*3 14.9 C 0 km/h
111 19-04-2009 22:03:58 14.6 C 6.63 g/m*3 14.6 C 0 km/h
112 19-04-2009 22:15:57 14.3 C 6.63 g/m*3 14.3 C 0 km/h
113 19-04-2009 22:27:57 14.1 C 6.67 g/m*3 14.1 C 0 km/h
114 19-04-2009 22:40:59 13.8 C 6.79 g/m*3 13.8 C 0 km/h
115 19-04-2009 22:52:59 13.7 C 6.87 g/m*3 13.7 C 0 km/h
116 19-04-2009 23:04:59 13.4 C 6.86 g/m*3 13.4 C 0 km/h
117 19-04-2009 23:17:00 13.1 C 6.96 g/m*3 13.1 C 0 km/h
118 19-04-2009 23:29:00 12.9 C 7.1 g/m*3 12.9 C 0 km/h
119 19-04-2009 23:41:00 12.7 C 7.12 g/m*3 12.7 C 0 km/h
120 19-04-2009 23:53:00 12.6 C 7.19 g/m*3 12.6 C 0 km/h
121 20-04-2009 00:05:00 12.4 C 7.21 g/m*3 12.4 C 0 km/h
122 20-04-2009 00:17:00 12.2 C 7.23 g/m*3 12.2 C 0 km/h
123 20-04-2009 00:29:00 12.1 C 7.29 g/m*3 12.1 C 0 km/h
124 20-04-2009 00:41:00 11.8 C 7.37 g/m*3 11.8 C 0 km/h
125 20-04-2009 00:53:00 11.7 C 7.43 g/m*3 11.7 C 0 km/h
Sensor: Nr:Datum:Temp:Abs-Feuchte:Windchill:Wind:
Aussen-T/F 126 20-04-2009 01:05:00 11.6 C 7.38 g/m*3 11.6 C 0 km/h
127 20-04-2009 01:17:00 11.3 C 7.34 g/m*3 11.3 C 0 km/h
128 20-04-2009 01:28:00 11.1 C 7.35 g/m*3 11.1 C 0 km/h
129 20-04-2009 01:40:00 11 C 7.31 g/m*3 11 C 0 km/h
130 20-04-2009 01:52:00 10.9 C 7.36 g/m*3 10.9 C 0 km/h
131 20-04-2009 02:04:00 10.7 C 7.27 g/m*3 10.7 C 0 km/h
132 20-04-2009 02:16:00 10.4 C 7.13 g/m*3 10.4 C 0 km/h
133 20-04-2009 02:28:00 10.2 C 7.14 g/m*3 10.2 C 0 km/h
134 20-04-2009 02:40:00 10.1 C 7.19 g/m*3 10.1 C 0 km/h
135 20-04-2009 02:52:00 9.9 C 7.28 g/m*3 9.9 C 0 km/h
136 20-04-2009 03:04:00 9.7 C 7.28 g/m*3 9.7 C 0 km/h
137 20-04-2009 03:16:01 9.4 C 7.24 g/m*3 9.4 C 0 km/h
138 20-04-2009 03:28:01 9.3 C 7.28 g/m*3 9.3 C 0 km/h
139 20-04-2009 03:40:01 9.1 C 7.19 g/m*3 9.1 C 0 km/h
140 20-04-2009 03:52:01 9 C 7.14 g/m*3 9 C 0 km/h
141 20-04-2009 04:04:01 8.9 C 7.27 g/m*3 8.9 C 0 km/h
142 20-04-2009 04:16:01 8.7 C 7.18 g/m*3 8.7 C 0 km/h
143 20-04-2009 04:28:01 8.6 C 7.13 g/m*3 8.6 C 0 km/h
144 20-04-2009 04:40:01 8.4 C 7.04 g/m*3 8.4 C 0 km/h
145 20-04-2009 04:52:01 8.3 C 7.08 g/m*3 8.3 C 0 km/h
146 20-04-2009 05:04:01 8.1 C 6.99 g/m*3 8.1 C 0 km/h
147 20-04-2009 05:16:01 8 C 6.94 g/m*3 8 C 0 km/h
148 20-04-2009 05:28:01 7.8 C 7.02 g/m*3 7.8 C 0 km/h
149 20-04-2009 05:40:01 7.6 C 6.93 g/m*3 7.6 C 0 km/h
150 20-04-2009 05:52:01 7.5 C 6.96 g/m*3 7.5 C 0 km/h
Sensor: Nr:Datum:Temp:Abs-Feuchte:Windchill:Wind:
Aussen-T/F 151 20-04-2009 06:04:01 7.3 C 6.79 g/m*3 7.3 C 0 km/h
152 20-04-2009 06:16:01 7.3 C 6.87 g/m*3 7.3 C 0 km/h
153 20-04-2009 06:28:01 7.1 C 6.79 g/m*3 7.1 C 0 km/h
154 20-04-2009 06:40:01 7 C 6.74 g/m*3 7 C 0 km/h
155 20-04-2009 06:52:58 6.8 C 6.81 g/m*3 6.8 C 0 km/h
156 20-04-2009 07:04:58 6.8 C 6.81 g/m*3 6.8 C 0 km/h
157 20-04-2009 07:16:59 6.9 C 6.85 g/m*3 6.9 C 0 km/h
158 20-04-2009 07:28:59 7 C 6.9 g/m*3 7 C 0 km/h
159 20-04-2009 07:40:02 7.2 C 7.06 g/m*3 7.2 C 0 km/h
160 20-04-2009 07:52:01 7.1 C 7.02 g/m*3 7.1 C 0 km/h
161 20-04-2009 08:04:02 7.2 C 6.99 g/m*3 7.2 C 0 km/h
162 20-04-2009 08:16:01 7.3 C 7.03 g/m*3 7.3 C 0 km/h
163 20-04-2009 08:28:01 7.4 C 7.08 g/m*3 7.4 C 0 km/h
164 20-04-2009 08:40:01 7.7 C 7.22 g/m*3 7.7 C 0 km/h
165 20-04-2009 08:52:02 8 C 7.28 g/m*3 8 C 0 km/h
166 20-04-2009 09:04:01 7.9 C 7.31 g/m*3 7.9 C 0 km/h
167 20-04-2009 09:16:00 8.2 C 7.45 g/m*3 8.2 C 0 km/h
168 20-04-2009 09:28:00 8.4 C 7.55 g/m*3 8.4 C 0 km/h
169 20-04-2009 09:40:01 8.9 C 7.8 g/m*3 8.9 C 0 km/h
170 20-04-2009 09:52:00 9.6 C 8.06 g/m*3 9.6 C 0 km/h
171 20-04-2009 10:04:00 10.4 C 8.29 g/m*3 10.4 C 0 km/h
172 20-04-2009 10:16:00 11.1 C 8.26 g/m*3 11.1 C 0 km/h
173 20-04-2009 10:28:00 12.1 C 8.47 g/m*3 12.1 C 0 km/h
174 20-04-2009 10:40:00 13 C 8.28 g/m*3 13 C 0 km/h
175 20-04-2009 10:52:59 13.5 C 7.72 g/m*3 13.5 C 0 km/h
Sensor: Nr:Datum:Temp:Abs-Feuchte:Windchill:Wind:
Aussen-T/F 176 20-04-2009 11:04:00 14.1 C 7.77 g/m*3 14.1 C 0 km/h
177 20-04-2009 11:16:00 14.9 C 7.77 g/m*3 14.9 C 0 km/h
178 20-04-2009 11:28:00 15.7 C 7.76 g/m*3 15.7 C 0 km/h
179 20-04-2009 11:40:59 16.2 C 7.72 g/m*3 16.2 C 0 km/h
180 20-04-2009 11:52:59 16.8 C 7.43 g/m*3 16.8 C 0 km/h
181 20-04-2009 12:04:59 17.2 C 7.18 g/m*3 17.2 C 0 km/h
182 20-04-2009 12:16:59 17.6 C 6.9 g/m*3 17.6 C 0 km/h
183 20-04-2009 12:28:59 18.3 C 6.72 g/m*3 18.3 C 0 km/h
184 20-04-2009 12:40:58 18.7 C 6.88 g/m*3 18.7 C 0 km/h
185 20-04-2009 12:52:59 18.9 C 6.64 g/m*3 18.9 C 0 km/h
186 20-04-2009 13:04:58 19.2 C 6.1 g/m*3 19.2 C 0 km/h
187 20-04-2009 13:16:58 20 C 6.39 g/m*3 20 C 0 km/h
188 20-04-2009 13:28:58 20.9 C 6.37 g/m*3 20.9 C 0 km/h
189 20-04-2009 13:40:58 21.2 C 5.56 g/m*3 21.2 C 0 km/h
190 20-04-2009 13:52:58 21.4 C 5.44 g/m*3 21.4 C 0 km/h
191 20-04-2009 14:04:57 21.5 C 5.28 g/m*3 21.5 C 0 km/h
192 20-04-2009 14:16:58 21.4 C 5.25 g/m*3 21.4 C 0 km/h
193 20-04-2009 14:28:58 22 C 5.05 g/m*3 22 C 0 km/h
194 20-04-2009 14:40:58 23.1 C 5.17 g/m*3 23.1 C 0 km/h
195 20-04-2009 14:52:57 22.7 C 4.65 g/m*3 22.7 C 0 km/h
196 20-04-2009 15:04:58 23.7 C 4.49 g/m*3 23.7 C 0 km/h
197 20-04-2009 15:16:57 23.8 C 4.3 g/m*3 23.8 C 0 km/h
198 20-04-2009 15:28:57 23.7 C 4.28 g/m*3 23.7 C 0 km/h
199 20-04-2009 15:40:57 23.8 C 4.3 g/m*3 23.8 C 0 km/h
200 20-04-2009 15:52:56 24.1 C 4.38 g/m*3 24.1 C 0 km/h
Sensor: Nr:Datum:Temp:Abs-Feuchte:Windchill:Wind:
Aussen-T/F 201 20-04-2009 16:04:57 24.1 C 4.38 g/m*3 24.1 C 0 km/h
202 20-04-2009 16:16:56 24.3 C 4.43 g/m*3 24.3 C 0 km/h
203 20-04-2009 16:28:56 25.2 C 4.66 g/m*3 25.2 C 0 km/h
204 20-04-2009 16:40:56 25.7 C 4.79 g/m*3 25.7 C 0 km/h
205 20-04-2009 16:52:56 26 C 4.87 g/m*3 26 C 0 km/h
206 20-04-2009 17:04:56 26 C 4.87 g/m*3 26 C 0 km/h
207 20-04-2009 17:16:56 27 C 5.15 g/m*3 27 C 0 km/h
208 20-04-2009 17:28:56 26 C 4.87 g/m*3 26 C 0 km/h
209 20-04-2009 17:40:56 25.6 C 4.76 g/m*3 25.6 C 0 km/h
210 20-04-2009 17:52:56 27.1 C 5.18 g/m*3 27.1 C 0 km/h
211 20-04-2009 18:04:55 25.9 C 4.84 g/m*3 25.9 C 0 km/h
212 20-04-2009 18:16:55 25.7 C 4.79 g/m*3 25.7 C 0 km/h
213 20-04-2009 18:28:55 25.3 C 4.68 g/m*3 25.3 C 0 km/h
214 20-04-2009 18:40:55 23.9 C 5.19 g/m*3 23.9 C 0 km/h
215 20-04-2009 18:52:55 22.8 C 5.49 g/m*3 22.8 C 0 km/h
216 20-04-2009 19:04:54 22.4 C 5.16 g/m*3 22.4 C 0 km/h
217 20-04-2009 19:16:55 21.5 C 5.47 g/m*3 21.5 C 0 km/h
218 20-04-2009 19:28:55 21.2 C 5.37 g/m*3 21.2 C 0 km/h
219 20-04-2009 19:40:55 21.2 C 5.56 g/m*3 21.2 C 0 km/h
220 20-04-2009 19:52:54 20.9 C 5.83 g/m*3 20.9 C 0 km/h
221 20-04-2009 20:04:55 20.4 C 5.66 g/m*3 20.4 C 0 km/h
222 20-04-2009 20:16:54 19.7 C 5.77 g/m*3 19.7 C 0 km/h
223 20-04-2009 20:28:54 19 C 5.87 g/m*3 19 C 0 km/h
224 20-04-2009 20:40:54 18.5 C 6.33 g/m*3 18.5 C 0 km/h
225 20-04-2009 20:52:54 18.1 C 5.87 g/m*3 18.1 C 0 km/h
Sensor: Nr:Datum:Temp:Abs-Feuchte:Windchill:Wind:
Aussen-T/F 226 20-04-2009 21:04:53 17.6 C 5.7 g/m*3 17.6 C 0 km/h
227 20-04-2009 21:16:54 17 C 5.5 g/m*3 17 C 0 km/h
228 20-04-2009 21:28:54 16.7 C 5.68 g/m*3 16.7 C 0 km/h
229 20-04-2009 21:40:54 16.3 C 5.69 g/m*3 16.3 C 0 km/h
230 20-04-2009 21:52:53 16.1 C 5.89 g/m*3 16.1 C 0 km/h
231 20-04-2009 22:04:54 15.9 C 5.69 g/m*3 15.9 C 0 km/h
232 20-04-2009 22:16:53 15.5 C 5.68 g/m*3 15.5 C 0 km/h
233 20-04-2009 22:28:53 15.2 C 5.58 g/m*3 15.2 C 0 km/h
234 20-04-2009 22:41:55 14.8 C 5.7 g/m*3 14.8 C 0 km/h
235 20-04-2009 22:53:55 14.6 C 5.76 g/m*3 14.6 C 0 km/h
236 20-04-2009 23:05:55 14.2 C 5.74 g/m*3 14.2 C 0 km/h
237 20-04-2009 23:17:55 14 C 5.79 g/m*3 14 C 0 km/h
238 20-04-2009 23:29:55 13.7 C 5.8 g/m*3 13.7 C 0 km/h
239 20-04-2009 23:41:55 13.7 C 5.92 g/m*3 13.7 C 0 km/h
240 20-04-2009 23:53:55 13.6 C 5.77 g/m*3 13.6 C 0 km/h
241 21-04-2009 00:05:55 13.2 C 5.63 g/m*3 13.2 C 0 km/h
242 21-04-2009 00:17:55 13.2 C 5.74 g/m*3 13.2 C 0 km/h
243 21-04-2009 00:29:55 12.9 C 5.75 g/m*3 12.9 C 0 km/h
244 21-04-2009 00:41:55 12.8 C 5.71 g/m*3 12.8 C 0 km/h
245 21-04-2009 00:53:55 12.5 C 5.72 g/m*3 12.5 C 0 km/h
246 21-04-2009 01:05:55 12.3 C 5.75 g/m*3 12.3 C 0 km/h
247 21-04-2009 01:17:55 11.9 C 5.93 g/m*3 11.9 C 0 km/h
248 21-04-2009 01:29:55 11.5 C 5.99 g/m*3 11.5 C 0 km/h
249 21-04-2009 01:41:55 11.4 C 5.95 g/m*3 11.4 C 0 km/h
250 21-04-2009 01:53:55 11.1 C 6.04 g/m*3 11.1 C 0 km/h
Sensor: Nr:Datum:Temp:Abs-Feuchte:Windchill:Wind:
Aussen-T/F 251 21-04-2009 02:05:55 10.7 C 5.99 g/m*3 10.7 C 0 km/h
252 21-04-2009 02:17:56 10.6 C 5.86 g/m*3 10.6 C 0 km/h
253 21-04-2009 02:29:56 10.5 C 5.92 g/m*3 10.5 C 0 km/h
254 21-04-2009 02:41:56 10.2 C 6 g/m*3 10.2 C 0 km/h
255 21-04-2009 02:53:56 10 C 6.01 g/m*3 10 C 0 km/h
256 21-04-2009 03:05:56 9.8 C 6.03 g/m*3 9.8 C 0 km/h
257 21-04-2009 03:17:56 9.6 C 6.05 g/m*3 9.6 C 0 km/h
258 21-04-2009 03:29:56 9.3 C 5.93 g/m*3 9.3 C 0 km/h
259 21-04-2009 03:41:56 9.2 C 5.98 g/m*3 9.2 C 0 km/h
260 21-04-2009 03:53:56 9 C 5.99 g/m*3 9 C 0 km/h
261 21-04-2009 04:05:56 8.8 C 6.01 g/m*3 8.8 C 0 km/h
262 21-04-2009 04:17:56 8.7 C 6.05 g/m*3 8.7 C 0 km/h
263 21-04-2009 04:29:56 8.5 C 6.15 g/m*3 8.5 C 0 km/h
264 21-04-2009 04:41:56 8.2 C 6.2 g/m*3 8.2 C 0 km/h
265 21-04-2009 04:53:56 8.1 C 6.16 g/m*3 8.1 C 0 km/h
266 21-04-2009 05:05:56 7.9 C 6.16 g/m*3 7.9 C 0 km/h
267 21-04-2009 05:17:56 7.9 C 6.24 g/m*3 7.9 C 0 km/h
268 21-04-2009 05:29:56 7.7 C 6.16 g/m*3 7.7 C 0 km/h
269 21-04-2009 05:41:56 7.6 C 6.28 g/m*3 7.6 C 0 km/h
270 21-04-2009 05:53:56 7.5 C 6.24 g/m*3 7.5 C 0 km/h
271 21-04-2009 06:05:57 7.4 C 6.28 g/m*3 7.4 C 0 km/h
272 21-04-2009 06:17:57 7.2 C 6.2 g/m*3 7.2 C 0 km/h
273 21-04-2009 06:29:57 7.1 C 6.24 g/m*3 7.1 C 0 km/h
274 21-04-2009 06:41:57 7.1 C 6.24 g/m*3 7.1 C 0 km/h
275 21-04-2009 06:53:55 7.1 C 6.32 g/m*3 7.1 C 0 km/h
Sensor: Nr:Datum:Temp:Abs-Feuchte:Windchill:Wind:
Aussen-T/F 276 21-04-2009 07:05:55 7.1 C 6.32 g/m*3 7.1 C 0 km/h
277 21-04-2009 07:17:54 7.1 C 6.32 g/m*3 7.1 C 0 km/h
278 21-04-2009 07:29:54 7.1 C 6.4 g/m*3 7.1 C 0 km/h
279 21-04-2009 07:41:54 7.3 C 6.48 g/m*3 7.3 C 0 km/h
280 21-04-2009 07:53:54 7.4 C 6.52 g/m*3 7.4 C 0 km/h
281 21-04-2009 08:05:54 7.5 C 6.64 g/m*3 7.5 C 0 km/h
282 21-04-2009 08:17:54 7.8 C 6.69 g/m*3 7.8 C 0 km/h
283 21-04-2009 08:29:54 8 C 6.7 g/m*3 8 C 0 km/h
284 21-04-2009 08:41:54 8.2 C 6.78 g/m*3 8.2 C 0 km/h
285 21-04-2009 08:53:53 8.5 C 6.83 g/m*3 8.5 C 0 km/h
286 21-04-2009 09:05:53 8.9 C 6.92 g/m*3 8.9 C 0 km/h
287 21-04-2009 09:17:54 9.4 C 7.15 g/m*3 9.4 C 0 km/h
288 21-04-2009 09:29:54 10.2 C 7.23 g/m*3 10.2 C 0 km/h
289 21-04-2009 09:41:53 10.8 C 7.31 g/m*3 10.8 C 0 km/h
290 21-04-2009 09:53:53 11.5 C 7.33 g/m*3 11.5 C 0 km/h
291 21-04-2009 10:05:53 12.2 C 7.01 g/m*3 12.2 C 0 km/h
292 21-04-2009 10:17:53 12.7 C 7.01 g/m*3 12.7 C 0 km/h
293 21-04-2009 10:29:53 13.4 C 7.09 g/m*3 13.4 C 0 km/h
294 21-04-2009 10:41:52 14 C 7 g/m*3 14 C 0 km/h
295 21-04-2009 10:53:53 14.7 C 7.05 g/m*3 14.7 C 0 km/h
296 21-04-2009 11:05:52 15.3 C 6.66 g/m*3 15.3 C 0 km/h
297 21-04-2009 11:17:52 15.9 C 6.09 g/m*3 15.9 C 0 km/h
298 21-04-2009 11:29:52 16.4 C 6.14 g/m*3 16.4 C 0 km/h
299 21-04-2009 11:41:52 16.8 C 6 g/m*3 16.8 C 0 km/h
300 21-04-2009 11:53:52 16.9 C 5.32 g/m*3 16.9 C 0 km/h
Sensor: Nr:Datum:Temp:Abs-Feuchte:Windchill:Wind:
Aussen-T/F 301 21-04-2009 12:05:52 17.2 C 5.42 g/m*3 17.2 C 0 km/h
302 21-04-2009 12:17:52 17.8 C 5.46 g/m*3 17.8 C 0 km/h
303 21-04-2009 12:29:52 18.7 C 5.6 g/m*3 18.7 C 0 km/h
304 21-04-2009 12:41:52 19.2 C 5.28 g/m*3 19.2 C 0 km/h
305 21-04-2009 12:53:52 19.7 C 5.6 g/m*3 19.7 C 0 km/h
306 21-04-2009 13:05:51 20 C 5.53 g/m*3 20 C 0 km/h
307 21-04-2009 13:17:51 21 C 5.5 g/m*3 21 C 0 km/h
308 21-04-2009 13:29:51 20.6 C 5.19 g/m*3 20.6 C 0 km/h
309 21-04-2009 13:41:50 21.3 C 4.85 g/m*3 21.3 C 0 km/h
310 21-04-2009 13:53:51 21.3 C 4.85 g/m*3 21.3 C 0 km/h
311 21-04-2009 14:05:50 21.6 C 5.12 g/m*3 21.6 C 0 km/h
312 21-04-2009 14:17:50 22.3 C 4.54 g/m*3 22.3 C 0 km/h
313 21-04-2009 14:29:50 22.2 C 4.71 g/m*3 22.2 C 0 km/h
314 21-04-2009 14:41:51 23.1 C 4.55 g/m*3 23.1 C 0 km/h
315 21-04-2009 14:53:50 23.7 C 4.49 g/m*3 23.7 C 0 km/h
316 21-04-2009 15:05:50 24.6 C 4.5 g/m*3 24.6 C 0 km/h
317 21-04-2009 15:17:50 24 C 4.35 g/m*3 24 C 0 km/h
318 21-04-2009 15:29:50 23.6 C 4.25 g/m*3 23.6 C 0 km/h
319 21-04-2009 15:41:50 24.4 C 4.45 g/m*3 24.4 C 0 km/h
320 21-04-2009 15:53:49 24.6 C 4.5 g/m*3 24.6 C 0 km/h
321 21-04-2009 16:05:50 25.7 C 4.79 g/m*3 25.7 C 0 km/h
322 21-04-2009 16:17:49 25.9 C 4.84 g/m*3 25.9 C 0 km/h
323 21-04-2009 16:29:49 26.2 C 4.92 g/m*3 26.2 C 0 km/h
324 21-04-2009 16:41:49 25.5 C 4.73 g/m*3 25.5 C 0 km/h
325 21-04-2009 16:53:49 25.2 C 4.66 g/m*3 25.2 C 0 km/h
Sensor: Nr:Datum:Temp:Abs-Feuchte:Windchill:Wind:
Aussen-T/F 326 21-04-2009 17:05:49 25.5 C 4.73 g/m*3 25.5 C 0 km/h
327 21-04-2009 17:17:49 25.6 C 4.76 g/m*3 25.6 C 0 km/h
328 21-04-2009 17:29:49 26 C 4.87 g/m*3 26 C 0 km/h
329 21-04-2009 17:41:48 26.1 C 4.9 g/m*3 26.1 C 0 km/h
330 21-04-2009 17:53:49 25.4 C 4.71 g/m*3 25.4 C 0 km/h
331 21-04-2009 18:05:48 24.4 C 4.45 g/m*3 24.4 C 0 km/h
332 21-04-2009 18:17:48 25 C 4.6 g/m*3 25 C 0 km/h
333 21-04-2009 18:29:48 24.7 C 4.53 g/m*3 24.7 C 0 km/h
334 21-04-2009 18:41:48 24.4 C 4.45 g/m*3 24.4 C 0 km/h
335 21-04-2009 18:53:48 24.2 C 4.4 g/m*3 24.2 C 0 km/h
336 21-04-2009 19:05:47 23.7 C 4.28 g/m*3 23.7 C 0 km/h
337 21-04-2009 19:17:48 24 C 4.35 g/m*3 24 C 0 km/h
338 21-04-2009 19:29:48 23.4 C 4.21 g/m*3 23.4 C 0 km/h
339 21-04-2009 19:41:48 23 C 4.11 g/m*3 23 C 0 km/h
340 21-04-2009 19:53:47 22 C 4.08 g/m*3 22 C 0 km/h
341 21-04-2009 20:05:48 21.7 C 4.2 g/m*3 21.7 C 0 km/h
342 21-04-2009 20:17:47 20.4 C 4.42 g/m*3 20.4 C 0 km/h
343 21-04-2009 20:29:47 19.8 C 4.44 g/m*3 19.8 C 0 km/h
344 21-04-2009 20:41:47 19.2 C 4.12 g/m*3 19.2 C 0 km/h
345 21-04-2009 20:53:46 18.7 C 4.64 g/m*3 18.7 C 0 km/h
346 21-04-2009 21:05:46 18.4 C 4.72 g/m*3 18.4 C 0 km/h
347 21-04-2009 21:17:47 17.9 C 4.73 g/m*3 17.9 C 0 km/h
348 21-04-2009 21:29:48 17.8 C 4.86 g/m*3 17.8 C 0 km/h
349 21-04-2009 21:41:46 17.5 C 5.22 g/m*3 17.5 C 0 km/h
350 21-04-2009 21:53:46 17.3 C 5.3 g/m*3 17.3 C 0 km/h
Sensor: Nr:Datum:Temp:Abs-Feuchte:Windchill:Wind:
Aussen-T/F 351 21-04-2009 22:05:45 17.1 C 5.39 g/m*3 17.1 C 0 km/h
352 21-04-2009 22:17:46 16.9 C 5.61 g/m*3 16.9 C 0 km/h
353 21-04-2009 22:29:46 16.7 C 5.68 g/m*3 16.7 C 0 km/h
354 21-04-2009 22:41:46 16.3 C 5.55 g/m*3 16.3 C 0 km/h
355 21-04-2009 22:54:46 16.2 C 5.65 g/m*3 16.2 C 0 km/h
356 21-04-2009 23:06:46 16 C 5.72 g/m*3 16 C 0 km/h
357 21-04-2009 23:18:46 15.5 C 5.95 g/m*3 15.5 C 0 km/h
358 21-04-2009 23:30:46 15.5 C 5.82 g/m*3 15.5 C 0 km/h
359 21-04-2009 23:42:46 15.1 C 5.81 g/m*3 15.1 C 0 km/h
360 21-04-2009 23:54:46 15.1 C 5.81 g/m*3 15.1 C 0 km/h

Legende:
   Min
   Max


Maximal/Minimal-Werte vom 19.04.2009 - 21.04.2009

Sensor Min Max Avg
Temp
(Aussen-T/F)
6.8 °C
20-04-2009  06:52:58
27.1 °C
20-04-2009  17:52:56
15.29 °C
Abs-Feuchte
(Aussen-T/F)
4.08 g/m*3
21-04-2009  19:53:47
8.47 g/m*3
20-04-2009  10:28:00
6.24 g/m*3
Windchill
(Aussen-T/F)
6.8 C
20-04-2009  06:52:58
27.1 C
20-04-2009  17:52:56
15.25 C

Die Daten stammen von einer Davis Vantage Pro 2 Wetter-Station und werden unter Linux mit der Software wview2wettercgi und aufbereitet. Alle Angaben erfolgen ohne Gewähr für ihre Vollständigkeit oder Richtigkeit.
Kontakt: Rainer Krienke krienke@uni-koblenz.de . Meine Webseiten an der Uni Koblenz oder privat.
Version: $Revision: 0.78 $